Time;durP1;ratioP1;P1;durP2;ratioP2;P2;SDS_P1;SDS_P2;PMS_P1;PMS_P2;Temp;Humidity;BMP_temperature;BMP_pressure;BME280_temperature;BME280_humidity;BME280_pressure;Samples;Min_cycle;Max_cycle;Signal;HPM_P1;HPM_P2
2021/05/01 00:02:19;;;;;;;10.40;5.47;;;8.70;99.90;;;;;;5016372;28;20452;-56
2021/05/01 00:04:46;;;;;;;7.90;4.93;;;8.80;99.90;;;;;;5033214;28;20448;-51
2021/05/01 00:07:12;;;;;;;6.80;4.70;;;9.00;99.90;;;;;;5014011;28;20837;-51
2021/05/01 00:09:40;;;;;;;6.33;3.97;;;9.10;99.90;;;;;;5013496;28;20473;-51
2021/05/01 00:12:07;;;;;;;5.83;4.00;;;9.20;99.90;;;;;;5012938;28;20973;-50
2021/05/01 00:14:36;;;;;;;5.33;3.17;;;9.40;99.90;;;;;;5026588;28;20464;-52
2021/05/01 00:17:03;;;;;;;3.60;2.60;;;9.30;99.90;;;;;;5013369;28;20456;-51
2021/05/01 00:19:32;;;;;;;3.60;2.63;;;9.30;99.90;;;;;;5013221;28;20596;-51
2021/05/01 00:21:59;;;;;;;3.60;3.00;;;9.30;99.90;;;;;;5025698;28;20475;-52
2021/05/01 00:24:26;;;;;;;4.57;2.97;;;9.20;99.90;;;;;;5023134;28;20473;-51
2021/05/01 00:26:53;;;;;;;4.50;3.07;;;9.10;99.90;;;;;;5012528;28;20449;-51
2021/05/01 00:29:20;;;;;;;4.53;3.30;;;9.10;99.90;;;;;;5027100;28;21021;-51
2021/05/01 00:31:46;;;;;;;4.23;3.47;;;9.10;99.90;;;;;;5032994;28;20444;-51
2021/05/01 00:34:13;;;;;;;5.50;4.40;;;9.20;99.90;;;;;;5023720;28;20820;-51
2021/05/01 00:36:39;;;;;;;8.47;5.90;;;9.10;99.90;;;;;;5012560;28;20981;-51
2021/05/01 00:39:06;;;;;;;7.70;5.17;;;9.20;99.90;;;;;;5016767;28;20482;-51
2021/05/01 00:41:33;;;;;;;8.67;5.67;;;9.40;99.90;;;;;;5012905;28;20457;-51
2021/05/01 00:44:03;;;;;;;9.57;5.40;;;9.40;99.90;;;;;;5012793;28;20454;-51
2021/05/01 00:46:30;;;;;;;8.97;5.70;;;9.30;99.90;;;;;;5016271;28;20456;-51
2021/05/01 00:48:56;;;;;;;8.13;5.70;;;9.40;99.90;;;;;;5024743;28;21060;-51
2021/05/01 00:51:23;;;;;;;9.23;5.70;;;9.00;99.90;;;;;;5020711;28;20483;-51
2021/05/01 00:53:50;;;;;;;8.90;5.50;;;9.10;99.90;;;;;;5023220;28;20460;-52
2021/05/01 00:56:17;;;;;;;9.03;5.93;;;9.20;99.90;;;;;;5011544;28;20463;-52
2021/05/01 00:58:44;;;;;;;9.43;6.00;;;9.40;99.90;;;;;;5029569;23;20494;-54
2021/05/01 01:01:20;;;;;;;7.20;5.23;;;9.40;99.90;;;;;;4991838;28;20452;-54
2021/05/01 01:03:48;;;;;;;9.60;6.20;;;9.50;99.90;;;;;;4992534;28;20460;-54
2021/05/01 01:06:15;;;;;;;9.77;6.57;;;9.60;99.90;;;;;;4992141;28;20517;-55
2021/05/01 01:08:43;;;;;;;9.20;6.23;;;9.80;99.90;;;;;;4992562;28;20485;-55
2021/05/01 01:11:10;;;;;;;9.80;6.17;;;9.90;99.90;;;;;;4991908;28;20442;-53
2021/05/01 01:13:37;;;;;;;9.63;6.40;;;9.90;99.90;;;;;;4992365;28;20451;-54
2021/05/01 01:16:04;;;;;;;11.50;6.70;;;9.90;99.90;;;;;;4991476;28;20438;-54
2021/05/01 01:18:32;;;;;;;9.70;6.20;;;9.90;99.90;;;;;;4991836;28;20474;-54
2021/05/01 01:21:00;;;;;;;11.53;6.80;;;9.50;99.90;;;;;;4992244;28;20453;-54
2021/05/01 01:23:28;;;;;;;12.00;7.10;;;9.40;99.90;;;;;;4991908;28;20889;-54
2021/05/01 01:25:54;;;;;;;14.03;8.27;;;9.40;99.90;;;;;;4993836;28;20453;-54
2021/05/01 01:28:21;;;;;;;14.07;8.77;;;9.20;99.90;;;;;;4996010;28;20455;-53
2021/05/01 01:30:48;;;;;;;13.10;8.00;;;9.20;99.90;;;;;;4992255;28;20454;-53
2021/05/01 01:33:15;;;;;;;15.33;8.73;;;9.10;99.90;;;;;;4996054;28;20456;-54
2021/05/01 01:35:41;;;;;;;18.23;10.20;;;9.10;99.90;;;;;;4992324;28;20558;-54
2021/05/01 01:38:08;;;;;;;16.77;9.77;;;9.10;99.90;;;;;;4991345;28;20468;-54
2021/05/01 01:40:38;;;;;;;17.00;10.03;;;9.00;99.90;;;;;;4992127;28;20486;-54
2021/05/01 01:43:05;;;;;;;20.30;11.70;;;9.00;99.90;;;;;;4991965;28;20462;-54
2021/05/01 01:45:32;;;;;;;16.37;9.70;;;8.90;99.90;;;;;;4991519;28;20457;-54
2021/05/01 01:47:59;;;;;;;18.00;9.93;;;8.70;99.90;;;;;;4991981;28;20457;-54
2021/05/01 01:50:27;;;;;;;19.53;9.90;;;8.80;99.90;;;;;;4991786;28;20470;-54
2021/05/01 01:52:54;;;;;;;14.83;8.90;;;8.80;99.90;;;;;;4993205;28;20950;-54
2021/05/01 01:55:23;;;;;;;16.30;9.30;;;8.90;99.90;;;;;;5003440;28;20445;-54
2021/05/01 01:57:51;;;;;;;13.67;8.47;;;9.10;99.90;;;;;;4995262;28;20480;-54
2021/05/01 02:00:20;;;;;;;13.37;7.77;;;9.10;99.90;;;;;;4972123;28;20522;-54
2021/05/01 02:02:47;;;;;;;13.00;7.77;;;9.00;99.90;;;;;;4974086;28;20462;-53
2021/05/01 02:05:15;;;;;;;15.03;8.80;;;9.00;99.90;;;;;;4997802;28;20462;-53
2021/05/01 02:07:42;;;;;;;12.90;8.03;;;8.90;99.90;;;;;;4991376;28;20449;-54
2021/05/01 02:10:11;;;;;;;15.83;8.10;;;8.80;99.90;;;;;;4991769;28;20478;-54
2021/05/01 02:12:39;;;;;;;15.73;8.87;;;8.90;99.90;;;;;;4991786;28;20455;-54
2021/05/01 02:15:13;;;;;;;14.87;8.70;;;8.90;99.90;;;;;;4994754;28;21069;-53
2021/05/01 02:17:40;;;;;;;15.77;9.07;;;8.80;99.90;;;;;;4991526;28;20473;-54
2021/05/01 02:20:09;;;;;;;15.97;8.73;;;8.80;99.90;;;;;;4991622;28;20486;-54
2021/05/01 02:22:36;;;;;;;15.20;8.90;;;8.80;99.90;;;;;;4993471;28;20453;-54
2021/05/01 02:25:03;;;;;;;16.67;9.50;;;8.70;99.90;;;;;;4995068;28;20457;-54
2021/05/01 02:27:30;;;;;;;16.60;9.70;;;8.90;99.90;;;;;;4995533;28;20458;-54
2021/05/01 02:29:57;;;;;;;15.23;8.93;;;9.00;99.90;;;;;;4995680;28;20470;-54
2021/05/01 02:32:24;;;;;;;14.63;8.90;;;9.10;99.90;;;;;;5012829;28;20456;-53
2021/05/01 02:34:51;;;;;;;16.07;9.60;;;9.10;99.90;;;;;;5005347;28;20492;-54
2021/05/01 02:37:17;;;;;;;15.83;9.47;;;9.10;99.90;;;;;;4995655;28;20465;-54
2021/05/01 02:39:43;;;;;;;17.40;10.00;;;8.90;99.90;;;;;;4994999;28;20982;-54
2021/05/01 02:42:10;;;;;;;18.40;10.50;;;8.80;99.90;;;;;;5012932;28;20512;-54
2021/05/01 02:44:37;;;;;;;18.63;9.73;;;8.60;99.90;;;;;;4995307;28;20548;-54
2021/05/01 02:47:03;;;;;;;17.00;10.07;;;8.60;99.90;;;;;;4995552;28;20450;-54
2021/05/01 02:49:31;;;;;;;17.60;10.20;;;8.70;99.90;;;;;;4995107;28;20473;-54
2021/05/01 02:51:58;;;;;;;16.60;10.10;;;8.80;99.90;;;;;;5009761;28;20459;-54
2021/05/01 02:54:24;;;;;;;17.37;9.30;;;8.90;99.90;;;;;;4996424;28;20446;-54
2021/05/01 02:56:51;;;;;;;18.67;10.57;;;9.00;99.90;;;;;;4994963;28;20461;-54
2021/05/01 02:59:17;;;;;;;16.10;10.50;;;9.00;99.90;;;;;;4994696;28;20490;-54
2021/05/01 03:01:44;;;;;;;16.80;10.40;;;9.00;99.90;;;;;;5008396;28;20453;-54
2021/05/01 03:04:10;;;;;;;16.03;9.63;;;9.00;99.90;;;;;;5005117;28;20458;-54
2021/05/01 03:06:38;;;;;;;15.47;9.30;;;9.00;99.90;;;;;;4994609;28;20450;-54
2021/05/01 03:09:05;;;;;;;14.10;9.37;;;8.90;99.90;;;;;;4994895;28;20475;-54
2021/05/01 03:11:32;;;;;;;14.27;8.80;;;8.80;99.90;;;;;;4996106;28;20502;-54
2021/05/01 03:13:58;;;;;;;14.67;8.80;;;8.60;99.90;;;;;;4994551;28;20454;-54
2021/05/01 03:16:25;;;;;;;15.97;9.47;;;8.60;99.90;;;;;;5013359;28;20449;-54
2021/05/01 03:18:51;;;;;;;12.67;7.90;;;8.60;99.90;;;;;;5014175;28;21013;-54
2021/05/01 03:21:18;;;;;;;13.57;8.77;;;8.60;99.90;;;;;;5004303;28;20461;-54
2021/05/01 03:23:48;;;;;;;13.13;8.27;;;8.60;99.90;;;;;;4994367;28;20455;-54
2021/05/01 03:26:16;;;;;;;11.00;7.00;;;8.60;99.90;;;;;;4993578;28;20458;-54
2021/05/01 03:28:43;;;;;;;12.93;8.30;;;8.60;99.90;;;;;;4994585;28;20532;-54
2021/05/01 03:31:09;;;;;;;11.40;7.23;;;8.60;99.90;;;;;;4994147;28;20454;-54
2021/05/01 03:33:36;;;;;;;12.37;7.60;;;8.80;99.90;;;;;;4993538;28;20459;-54
2021/05/01 03:36:02;;;;;;;13.37;7.57;;;8.70;99.90;;;;;;5000916;28;20458;-54
2021/05/01 03:38:29;;;;;;;12.57;7.43;;;8.70;99.90;;;;;;4994384;28;20462;-54
2021/05/01 03:40:57;;;;;;;10.70;7.17;;;8.70;99.90;;;;;;4994926;28;20482;-54
2021/05/01 03:43:23;;;;;;;12.07;7.27;;;8.70;99.90;;;;;;4994277;28;20540;-54
2021/05/01 03:45:50;;;;;;;12.43;7.60;;;8.70;99.90;;;;;;4993915;28;20466;-54
2021/05/01 03:48:16;;;;;;;12.97;7.70;;;8.70;99.90;;;;;;4993757;28;20836;-54
2021/05/01 03:50:43;;;;;;;11.93;7.27;;;8.70;99.90;;;;;;4995154;28;20454;-54
2021/05/01 03:53:09;;;;;;;13.33;7.77;;;8.70;99.90;;;;;;4994080;28;20457;-54
2021/05/01 03:55:36;;;;;;;13.53;7.40;;;8.70;99.90;;;;;;4993195;28;20454;-54
2021/05/01 03:58:03;;;;;;;11.83;7.50;;;8.70;99.90;;;;;;4994214;28;20449;-54
2021/05/01 04:00:30;;;;;;;12.60;7.50;;;8.80;99.90;;;;;;4994421;28;20493;-54
2021/05/01 04:02:56;;;;;;;11.70;6.93;;;8.90;99.90;;;;;;4994024;28;20450;-54
2021/05/01 04:05:23;;;;;;;11.33;7.07;;;8.90;99.90;;;;;;4993471;28;20450;-54
2021/05/01 04:07:50;;;;;;;10.20;6.40;;;8.80;99.90;;;;;;4993729;28;20454;-54
2021/05/01 04:10:17;;;;;;;12.43;7.53;;;8.70;99.90;;;;;;4993281;28;20468;-54
2021/05/01 04:12:44;;;;;;;11.10;6.50;;;8.70;99.90;;;;;;5011336;28;20552;-54
2021/05/01 04:15:12;;;;;;;11.57;6.63;;;8.70;99.90;;;;;;5004572;28;20512;-54
2021/05/01 04:17:38;;;;;;;11.60;7.10;;;8.80;99.90;;;;;;4993777;28;20458;-54
2021/05/01 04:20:06;;;;;;;11.83;7.20;;;8.90;99.90;;;;;;4993248;28;20486;-54
2021/05/01 04:22:33;;;;;;;12.77;7.43;;;8.90;99.90;;;;;;4994525;28;20450;-54
2021/05/01 04:24:59;;;;;;;12.80;7.60;;;8.80;99.90;;;;;;4992768;28;20461;-54
2021/05/01 04:27:26;;;;;;;13.97;7.93;;;8.80;99.90;;;;;;4993716;28;20454;-54
2021/05/01 04:29:52;;;;;;;16.70;8.70;;;8.70;99.90;;;;;;4993569;28;20482;-54
2021/05/01 04:32:20;;;;;;;18.37;9.77;;;8.70;99.90;;;;;;5008327;28;20522;-54
2021/05/01 04:34:46;;;;;;;17.97;9.83;;;8.70;99.90;;;;;;5007895;28;20454;-54
2021/05/01 04:37:13;;;;;;;21.00;10.50;;;8.70;99.90;;;;;;4993242;28;20466;-54
2021/05/01 04:39:39;;;;;;;18.90;9.87;;;8.70;99.90;;;;;;4993201;28;20486;-54
2021/05/01 04:42:07;;;;;;;19.60;10.43;;;8.70;99.90;;;;;;4992402;28;20454;-54
2021/05/01 04:44:34;;;;;;;22.33;11.90;;;8.80;99.90;;;;;;5006303;28;20548;-54
2021/05/01 04:47:01;;;;;;;22.37;11.23;;;8.80;99.90;;;;;;4992946;28;20446;-54
2021/05/01 04:49:31;;;;;;;20.60;11.50;;;8.80;99.90;;;;;;4992902;28;20466;-54
2021/05/01 04:51:59;;;;;;;23.40;12.00;;;8.80;99.90;;;;;;5005978;28;20541;-54
2021/05/01 04:54:28;;;;;;;25.57;13.23;;;8.70;99.90;;;;;;5010909;28;20462;-54
2021/05/01 04:56:55;;;;;;;23.70;12.50;;;8.70;99.90;;;;;;4993011;28;20455;-54
2021/05/01 04:59:21;;;;;;;24.97;12.27;;;8.70;99.90;;;;;;4992558;28;21044;-54
2021/05/01 05:01:48;;;;;;;24.13;11.97;;;8.60;99.90;;;;;;4993541;28;20451;-54
2021/05/01 05:04:14;;;;;;;25.07;12.83;;;8.70;99.90;;;;;;4992526;28;20459;-54
2021/05/01 05:06:42;;;;;;;23.20;12.17;;;8.70;99.90;;;;;;4992243;28;20458;-54
2021/05/01 05:09:08;;;;;;;23.17;11.87;;;8.80;99.90;;;;;;5004402;28;20497;-54
2021/05/01 05:11:35;;;;;;;24.07;12.90;;;8.80;99.90;;;;;;5011838;28;20461;-54
2021/05/01 05:14:01;;;;;;;22.30;11.03;;;8.80;99.90;;;;;;4993807;28;20461;-54
2021/05/01 05:16:28;;;;;;;24.60;12.17;;;8.80;99.90;;;;;;5006194;28;20456;-54
2021/05/01 05:18:55;;;;;;;24.17;11.50;;;9.00;99.90;;;;;;5012045;28;21001;-54
2021/05/01 05:21:22;;;;;;;21.87;11.23;;;9.10;99.90;;;;;;5008864;28;20441;-54
2021/05/01 05:23:49;;;;;;;21.23;11.00;;;9.00;99.90;;;;;;4995513;28;20469;-54
2021/05/01 05:26:16;;;;;;;20.37;10.73;;;9.10;99.90;;;;;;4992129;28;20452;-54
2021/05/01 05:28:43;;;;;;;21.30;11.20;;;9.20;99.90;;;;;;4992335;28;20466;-54
2021/05/01 05:31:09;;;;;;;19.53;10.30;;;9.30;99.90;;;;;;4993002;28;20818;-54
2021/05/01 05:33:36;;;;;;;20.00;11.10;;;9.40;99.90;;;;;;4993365;28;20554;-54
2021/05/01 05:36:03;;;;;;;22.47;11.20;;;9.40;99.90;;;;;;4994013;28;20442;-54
2021/05/01 05:38:29;;;;;;;21.63;10.80;;;9.30;99.90;;;;;;5007808;28;20532;-54
2021/05/01 05:40:57;;;;;;;20.60;10.87;;;9.30;99.90;;;;;;5008818;28;20492;-54
2021/05/01 05:43:23;;;;;;;17.97;10.53;;;9.30;99.90;;;;;;4992280;28;20450;-54
2021/05/01 05:45:50;;;;;;;18.10;10.20;;;9.10;99.90;;;;;;4991161;28;20827;-54
2021/05/01 05:48:16;;;;;;;19.77;10.70;;;9.10;99.90;;;;;;4989678;28;20461;-54
2021/05/01 05:50:43;;;;;;;19.93;10.50;;;9.20;99.90;;;;;;4989208;28;20443;-54
2021/05/01 05:53:09;;;;;;;23.03;10.03;;;9.20;99.90;;;;;;4990064;28;20457;-54
2021/05/01 05:55:36;;;;;;;18.40;9.77;;;9.40;99.90;;;;;;4991886;28;20448;-54
2021/05/01 05:58:03;;;;;;;20.20;11.00;;;9.40;99.90;;;;;;4991481;28;20451;-54
2021/05/01 06:00:30;;;;;;;21.17;11.57;;;9.50;99.90;;;;;;4999660;28;20986;-54
2021/05/01 06:03:00;;;;;;;22.87;12.10;;;9.50;99.90;;;;;;4995403;28;20533;-54
2021/05/01 06:05:29;;;;;;;19.77;11.23;;;9.60;99.90;;;;;;4995905;28;20454;-54
2021/05/01 06:07:59;;;;;;;22.60;11.20;;;9.50;99.90;;;;;;4979579;28;20456;-54
2021/05/01 06:10:26;;;;;;;24.80;11.90;;;9.50;99.90;;;;;;4991954;28;20470;-54
2021/05/01 06:12:53;;;;;;;26.20;13.40;;;9.60;99.90;;;;;;4990992;28;20911;-54
2021/05/01 06:15:21;;;;;;;22.83;12.10;;;9.80;99.90;;;;;;4992566;28;20498;-54
2021/05/01 06:17:51;;;;;;;23.00;11.77;;;9.70;99.90;;;;;;4991392;28;20442;-54
2021/05/01 06:20:18;;;;;;;23.20;11.93;;;9.70;99.90;;;;;;4989211;28;20539;-54
2021/05/01 06:22:44;;;;;;;23.73;12.27;;;9.90;99.90;;;;;;4991045;28;20450;-54
2021/05/01 06:25:12;;;;;;;23.20;12.10;;;9.90;99.90;;;;;;4991260;28;20454;-54
2021/05/01 06:27:39;;;;;;;22.37;11.80;;;9.80;99.90;;;;;;4991372;28;20508;-54
2021/05/01 06:30:08;;;;;;;26.37;13.47;;;9.60;99.90;;;;;;4979946;28;20881;-54
2021/05/01 06:32:37;;;;;;;27.20;14.30;;;9.60;99.90;;;;;;4988761;28;20458;-53
2021/05/01 06:35:04;;;;;;;27.60;13.87;;;9.60;99.90;;;;;;4987466;28;21126;-54
2021/05/01 06:37:31;;;;;;;22.90;12.10;;;9.80;99.90;;;;;;4983766;28;20463;-54
2021/05/01 06:40:00;;;;;;;24.90;12.17;;;10.00;99.90;;;;;;4985979;28;20557;-54
2021/05/01 06:42:31;;;;;;;28.80;13.93;;;9.90;99.90;;;;;;4990233;28;20540;-54
2021/05/01 06:45:02;;;;;;;26.27;13.67;;;9.80;99.90;;;;;;4990755;28;21108;-54
2021/05/01 06:47:30;;;;;;;27.37;13.87;;;9.90;99.90;;;;;;4991473;28;20812;-54
2021/05/01 06:50:04;;;;;;;24.70;12.93;;;9.90;99.90;;;;;;4991306;28;20478;-54
2021/05/01 06:52:31;;;;;;;25.60;12.43;;;9.80;99.90;;;;;;4991249;28;20492;-54
2021/05/01 06:55:02;;;;;;;24.37;12.40;;;9.80;99.90;;;;;;4991093;28;20508;-54
2021/05/01 06:57:29;;;;;;;25.73;12.43;;;9.90;99.90;;;;;;4990985;28;20454;-54
2021/05/01 06:59:58;;;;;;;26.00;13.10;;;10.00;99.90;;;;;;5014685;23;20542;-53
2021/05/01 07:02:26;;;;;;;22.13;12.73;;;10.20;99.90;;;;;;4990525;28;20492;-52
2021/05/01 07:04:54;;;;;;;25.10;13.87;;;10.20;99.90;;;;;;4990559;28;21131;-52
2021/05/01 07:07:23;;;;;;;26.50;13.93;;;10.30;99.90;;;;;;4979611;28;20457;-51
2021/05/01 07:09:50;;;;;;;23.63;13.50;;;10.30;99.90;;;;;;4983624;28;20815;-51
2021/05/01 07:12:19;;;;;;;24.03;13.60;;;10.30;99.90;;;;;;4971640;28;20490;-52
2021/05/01 07:14:47;;;;;;;27.73;14.07;;;10.30;99.90;;;;;;4974445;28;20451;-51
2021/05/01 07:17:14;;;;;;;25.43;14.47;;;10.20;99.90;;;;;;4975321;28;20482;-51
2021/05/01 07:19:41;;;;;;;23.23;12.23;;;10.40;99.90;;;;;;4970293;28;20479;-50
2021/05/01 07:22:08;;;;;;;25.00;13.80;;;10.50;99.90;;;;;;4969236;28;20521;-51
2021/05/01 07:24:38;;;;;;;25.97;15.40;;;10.60;99.90;;;;;;4974193;28;20509;-51
2021/05/01 07:27:06;;;;;;;26.77;14.43;;;10.90;99.90;;;;;;4970254;28;20472;-49
2021/05/01 07:29:34;;;;;;;23.80;13.27;;;11.00;99.90;;;;;;4971016;28;20486;-49
2021/05/01 07:32:02;;;;;;;21.63;12.03;;;11.10;99.90;;;;;;4975003;28;20918;-50
2021/05/01 07:34:33;;;;;;;23.97;13.30;;;11.20;99.90;;;;;;4975272;28;20456;-49
2021/05/01 07:37:04;;;;;;;25.57;14.07;;;11.00;99.90;;;;;;4974975;28;20949;-50
2021/05/01 07:39:35;;;;;;;24.30;14.73;;;10.90;99.90;;;;;;4975086;28;20877;-50
2021/05/01 07:42:03;;;;;;;23.93;13.50;;;10.80;99.90;;;;;;4974878;28;20447;-50
2021/05/01 07:44:31;;;;;;;26.60;14.30;;;10.90;99.90;;;;;;4973338;28;20460;-50
2021/05/01 07:47:00;;;;;;;23.57;13.60;;;10.50;99.90;;;;;;4974489;28;20946;-49
2021/05/01 07:49:27;;;;;;;25.77;13.40;;;10.30;99.90;;;;;;4975046;28;20464;-50
2021/05/01 07:51:55;;;;;;;27.50;15.07;;;10.30;99.90;;;;;;4974649;28;20456;-51
2021/05/01 07:54:22;;;;;;;24.63;13.10;;;10.50;99.90;;;;;;4974984;28;20530;-51
2021/05/01 07:56:49;;;;;;;25.77;13.40;;;10.50;99.90;;;;;;4974533;28;20456;-50
2021/05/01 07:59:16;;;;;;;25.67;13.37;;;10.50;99.90;;;;;;4974502;28;20534;-50
2021/05/01 08:01:43;;;;;;;28.83;14.13;;;10.40;99.90;;;;;;4974609;28;21006;-50
2021/05/01 08:04:10;;;;;;;28.37;15.13;;;10.60;99.90;;;;;;4974671;28;20969;-50
2021/05/01 08:06:37;;;;;;;26.60;14.90;;;10.40;99.90;;;;;;4974672;28;20459;-51
2021/05/01 08:09:04;;;;;;;25.10;13.70;;;10.50;99.90;;;;;;4974608;28;20482;-50
2021/05/01 08:11:30;;;;;;;25.23;13.40;;;10.60;99.90;;;;;;4972937;28;20456;-51
2021/05/01 08:13:58;;;;;;;27.70;14.60;;;10.60;99.90;;;;;;4959521;28;20957;-51
2021/05/01 08:16:24;;;;;;;27.43;13.83;;;10.60;99.90;;;;;;4964625;28;20455;-50
2021/05/01 08:18:51;;;;;;;25.40;13.47;;;10.70;99.90;;;;;;4973978;28;20466;-51
2021/05/01 08:21:18;;;;;;;25.60;13.63;;;10.60;99.90;;;;;;4968769;28;20488;-51
2021/05/01 08:23:44;;;;;;;28.07;14.97;;;10.60;99.90;;;;;;4967852;28;20462;-50
2021/05/01 08:26:11;;;;;;;30.23;16.27;;;10.40;99.90;;;;;;4992011;28;20447;-51
2021/05/01 08:28:40;;;;;;;26.10;13.87;;;10.40;99.90;;;;;;4985429;28;20456;-50
2021/05/01 08:31:08;;;;;;;28.63;15.37;;;10.50;99.90;;;;;;4973979;28;20506;-50
2021/05/01 08:33:35;;;;;;;28.93;14.90;;;10.60;99.90;;;;;;4974207;28;20528;-50
2021/05/01 08:36:01;;;;;;;32.17;16.07;;;10.90;99.90;;;;;;4973974;28;20477;-51
2021/05/01 08:38:32;;;;;;;29.97;15.93;;;10.80;99.90;;;;;;4974053;28;20502;-50
2021/05/01 08:40:59;;;;;;;27.97;16.00;;;10.60;99.90;;;;;;4973763;28;20557;-50
2021/05/01 08:43:25;;;;;;;31.77;16.77;;;10.60;99.90;;;;;;4974266;28;20451;-51
2021/05/01 08:45:53;;;;;;;30.63;15.97;;;10.60;99.90;;;;;;4973667;28;20454;-49
2021/05/01 08:48:24;;;;;;;30.13;16.50;;;10.30;99.90;;;;;;4974067;28;20463;-51
2021/05/01 08:50:54;;;;;;;30.17;15.93;;;10.40;99.90;;;;;;4973804;28;20501;-50
2021/05/01 08:53:21;;;;;;;29.83;16.07;;;10.50;99.90;;;;;;4973885;28;20459;-51
2021/05/01 08:55:48;;;;;;;31.20;16.17;;;10.40;99.90;;;;;;4973829;28;20550;-51
2021/05/01 08:58:14;;;;;;;33.00;16.47;;;10.40;99.90;;;;;;4973811;28;20945;-50
2021/05/01 09:00:43;;;;;;;28.80;15.63;;;10.40;99.90;;;;;;4973529;28;20491;-51
2021/05/01 09:03:12;;;;;;;32.97;15.20;;;10.30;99.90;;;;;;4973774;28;20830;-51
2021/05/01 09:05:41;;;;;;;29.83;14.70;;;10.30;99.90;;;;;;4973339;28;21039;-50
2021/05/01 09:08:10;;;;;;;28.70;14.47;;;10.20;99.90;;;;;;4978432;28;20458;-51
2021/05/01 09:10:41;;;;;;;31.67;15.97;;;10.10;99.90;;;;;;4993081;28;20474;-51
2021/05/01 09:13:17;;;;;;;33.20;16.10;;;10.00;99.90;;;;;;4985313;28;20459;-51
2021/05/01 09:15:56;;;;;;;29.60;15.20;;;10.00;99.90;;;;;;4974502;28;20439;-51
2021/05/01 09:18:23;;;;;;;28.73;15.00;;;10.20;99.90;;;;;;4973060;28;20466;-50
2021/05/01 09:20:50;;;;;;;28.00;14.67;;;10.30;99.90;;;;;;4970651;28;20981;-51
2021/05/01 09:23:17;;;;;;;30.63;15.70;;;10.40;99.90;;;;;;4982564;28;20455;-51
2021/05/01 09:25:49;;;;;;;27.53;15.50;;;10.30;99.90;;;;;;4975470;28;20455;-51
2021/05/01 09:28:17;;;;;;;27.60;14.00;;;10.30;99.90;;;;;;4973436;28;20451;-51
2021/05/01 09:30:58;;;;;;;33.87;16.37;;;10.30;99.90;;;;;;4972877;28;20499;-51
2021/05/01 09:33:27;;;;;;;31.03;15.50;;;10.30;99.90;;;;;;4973387;28;20458;-51
2021/05/01 09:35:59;;;;;;;27.90;14.60;;;10.30;99.90;;;;;;4972932;28;20459;-51
2021/05/01 09:38:30;;;;;;;29.10;15.07;;;10.30;99.90;;;;;;4971383;28;20458;-50
2021/05/01 09:40:57;;;;;;;27.63;14.67;;;10.20;99.90;;;;;;4980194;28;20582;-51
2021/05/01 09:43:23;;;;;;;30.30;16.00;;;10.20;99.90;;;;;;4976966;28;20451;-50
2021/05/01 09:45:49;;;;;;;32.80;16.30;;;10.10;99.90;;;;;;4972272;28;20466;-51
2021/05/01 09:48:18;;;;;;;32.23;15.10;;;10.00;99.90;;;;;;4981788;28;20953;-51
2021/05/01 09:50:46;;;;;;;36.30;16.40;;;10.00;99.90;;;;;;4973961;28;20467;-51
2021/05/01 09:53:17;;;;;;;35.40;16.17;;;10.00;99.90;;;;;;4973000;28;20462;-51
2021/05/01 09:55:46;;;;;;;31.88;16.98;;;9.90;99.90;;;;;;4967745;28;20454;-50
2021/05/01 09:58:18;;;;;;;31.83;17.10;;;10.00;99.90;;;;;;4965120;28;20454;-51
2021/05/01 10:00:45;;;;;;;33.30;16.50;;;10.00;99.90;;;;;;4971594;28;20487;-52
2021/05/01 10:03:23;;;;;;;30.40;15.80;;;10.00;99.90;;;;;;4972753;28;20576;-51
2021/05/01 10:05:51;;;;;;;28.80;14.63;;;10.00;99.90;;;;;;4969729;28;20455;-50
2021/05/01 10:08:21;;;;;;;33.03;15.70;;;10.00;99.90;;;;;;4972745;28;20460;-58
2021/05/01 10:10:50;;;;;;;34.93;15.13;;;10.00;99.90;;;;;;4966057;28;20467;-52
2021/05/01 10:13:16;;;;;;;30.67;15.20;;;9.90;99.90;;;;;;4972556;28;20459;-53
2021/05/01 10:15:43;;;;;;;31.10;16.13;;;9.90;99.90;;;;;;4972181;28;20463;-52
2021/05/01 10:18:12;;;;;;;30.40;15.80;;;9.80;99.90;;;;;;4972431;28;21139;-54
2021/05/01 10:20:45;;;;;;;34.80;17.20;;;9.80;99.90;;;;;;4971689;28;20537;-54
2021/05/01 10:23:12;;;;;;;31.37;14.80;;;9.80;99.90;;;;;;4972581;28;20494;-53
2021/05/01 10:25:40;;;;;;;29.47;15.30;;;9.80;99.90;;;;;;4972028;28;20455;-54
2021/05/01 10:28:11;;;;;;;32.80;14.90;;;9.80;99.90;;;;;;4971487;28;20478;-54
2021/05/01 10:30:41;;;;;;;32.53;15.60;;;9.70;99.90;;;;;;4971753;28;20460;-53
2021/05/01 10:33:23;;;;;;;34.10;14.73;;;9.70;99.90;;;;;;4972344;28;20466;-54
2021/05/01 10:35:54;;;;;;;31.97;15.40;;;9.70;99.90;;;;;;4969879;28;20455;-54
2021/05/01 10:38:22;;;;;;;32.63;16.10;;;9.70;99.90;;;;;;4972640;28;20462;-53
2021/05/01 10:40:51;;;;;;;32.30;15.70;;;9.80;99.90;;;;;;4972457;28;20483;-54
2021/05/01 10:43:20;;;;;;;33.23;16.63;;;9.80;99.90;;;;;;4974324;28;20458;-54
2021/05/01 10:46:05;;;;;;;38.63;18.50;;;9.80;99.90;;;;;;4975708;28;20459;-54
2021/05/01 10:48:33;;;;;;;33.83;16.63;;;9.80;99.90;;;;;;4958227;28;20455;-54
2021/05/01 10:51:11;;;;;;;34.78;18.95;;;9.80;99.90;;;;;;4966670;28;20479;-54
2021/05/01 10:53:39;;;;;;;35.27;18.40;;;9.80;99.90;;;;;;4965786;28;20199;-54
2021/05/01 10:56:07;;;;;;;32.57;17.00;;;9.70;99.90;;;;;;4975464;28;20458;-54
2021/05/01 10:58:42;;;;;;;37.07;18.00;;;9.80;99.90;;;;;;4975993;28;20458;-54
2021/05/01 11:01:11;;;;;;;33.30;15.90;;;9.80;99.90;;;;;;4976162;28;20485;-53
2021/05/01 11:03:47;;;;;;;35.70;16.87;;;9.80;99.90;;;;;;4975938;28;20451;-53
2021/05/01 11:06:22;;;;;;;29.10;14.87;;;9.80;99.90;;;;;;4975544;28;20516;-54
2021/05/01 11:08:58;;;;;;;32.00;16.43;;;9.80;99.90;;;;;;4975817;28;20550;-53
2021/05/01 11:11:30;;;;;;;37.37;17.60;;;9.80;99.90;;;;;;4976056;28;20450;-54
2021/05/01 11:13:59;;;;;;;33.43;16.67;;;9.80;99.90;;;;;;4975890;28;20444;-54
2021/05/01 11:16:32;;;;;;;32.20;16.60;;;9.80;99.90;;;;;;4973609;28;20890;-54
2021/05/01 11:19:00;;;;;;;35.93;16.90;;;9.80;99.90;;;;;;4985535;28;20473;-54
2021/05/01 11:21:30;;;;;;;32.80;15.80;;;9.90;99.90;;;;;;4976216;28;20479;-54
2021/05/01 11:23:57;;;;;;;34.20;16.07;;;10.00;99.90;;;;;;4977591;28;20456;-54
2021/05/01 11:26:24;;;;;;;28.80;15.33;;;9.90;99.90;;;;;;4980113;28;20455;-54
2021/05/01 11:28:52;;;;;;;30.13;15.50;;;10.00;99.90;;;;;;4978000;28;20462;-53
2021/05/01 11:31:19;;;;;;;31.40;15.53;;;10.00;99.90;;;;;;4983406;28;20451;-53
2021/05/01 11:33:47;;;;;;;29.97;14.83;;;9.90;99.90;;;;;;4975184;28;20468;-54
2021/05/01 11:36:20;;;;;;;30.47;15.20;;;9.90;99.90;;;;;;4974797;28;21038;-54
2021/05/01 11:38:49;;;;;;;35.80;18.85;;;10.00;99.90;;;;;;4971720;28;20486;-53
2021/05/01 11:41:16;;;;;;;29.90;14.70;;;10.00;99.90;;;;;;4974492;28;20230;-54
2021/05/01 11:43:44;;;;;;;31.60;16.30;;;10.10;99.90;;;;;;4972806;28;20450;-53
2021/05/01 11:46:22;;;;;;;33.00;16.20;;;10.20;99.90;;;;;;4979155;28;20455;-53
2021/05/01 11:48:56;;;;;;;30.13;15.00;;;10.20;99.90;;;;;;4994306;28;20977;-54
2021/05/01 11:51:33;;;;;;;28.67;13.70;;;10.20;99.90;;;;;;4978753;28;20451;-53
2021/05/01 11:54:15;;;;;;;28.97;15.10;;;10.20;99.90;;;;;;4974003;28;20451;-53
2021/05/01 11:56:54;;;;;;;30.03;15.30;;;10.10;99.90;;;;;;4974466;28;20455;-53
2021/05/01 11:59:21;;;;;;;28.83;14.00;;;10.20;99.90;;;;;;4955229;28;20480;-53
2021/05/01 12:02:00;;;;;;;29.53;14.90;;;10.20;99.90;;;;;;4958711;28;20577;-53
2021/05/01 12:04:48;;;;;;;27.63;14.13;;;10.20;99.90;;;;;;4956043;28;20448;-53
2021/05/01 12:07:19;;;;;;;28.50;14.67;;;10.10;99.90;;;;;;4962216;28;20459;-53
2021/05/01 12:09:50;;;;;;;26.80;14.70;;;10.10;99.90;;;;;;4960278;28;20467;-53
2021/05/01 12:12:19;;;;;;;26.70;13.43;;;10.00;99.90;;;;;;4957785;28;20463;-53
2021/05/01 12:14:48;;;;;;;24.27;13.27;;;10.10;99.90;;;;;;4980455;28;20497;-52
2021/05/01 12:17:16;;;;;;;27.90;13.80;;;10.10;99.90;;;;;;4977743;28;20476;-53
2021/05/01 12:19:45;;;;;;;27.90;13.67;;;10.20;99.90;;;;;;4974208;28;20480;-53
2021/05/01 12:22:29;;;;;;;25.30;13.10;;;10.20;99.90;;;;;;4974606;28;20893;-53
2021/05/01 12:24:56;;;;;;;24.37;12.53;;;10.20;99.90;;;;;;4974286;28;20483;-54
2021/05/01 12:27:48;;;;;;;28.03;14.60;;;10.10;99.90;;;;;;4973812;28;21052;-53
2021/05/01 12:31:00;;;;;;;26.95;14.73;;;10.10;99.90;;;;;;4973577;28;20481;-53
2021/05/01 12:33:56;;;;;;;26.77;14.00;;;10.10;99.90;;;;;;4974552;28;20274;-53
2021/05/01 12:36:33;;;;;;;22.83;12.90;;;10.20;99.90;;;;;;4972922;28;20463;-54
2021/05/01 12:39:00;;;;;;;30.90;15.43;;;10.00;99.90;;;;;;4966113;28;20506;-53
2021/05/01 12:41:31;;;;;;;29.83;15.63;;;9.90;99.90;;;;;;4969626;28;20554;-53
2021/05/01 12:43:58;;;;;;;39.40;16.80;;;9.90;99.90;;;;;;4974004;28;20861;-53
2021/05/01 12:46:52;;;;;;;32.80;14.43;;;9.90;99.90;;;;;;4971768;28;20463;-53